sensor_id;sensor_type;location;lat;lon;timestamp;temperature;humidity
63317;DHT22;49822;41.468;13.560;2023-07-16T00:02:00;25.30;87.60
63317;DHT22;49822;41.468;13.560;2023-07-16T00:04:26;25.20;87.70
63317;DHT22;49822;41.468;13.560;2023-07-16T00:06:53;25.30;87.00
63317;DHT22;49822;41.468;13.560;2023-07-16T00:09:19;25.40;87.10
63317;DHT22;49822;41.468;13.560;2023-07-16T00:11:45;25.50;87.00
63317;DHT22;49822;41.468;13.560;2023-07-16T00:14:12;25.50;86.80
63317;DHT22;49822;41.468;13.560;2023-07-16T00:16:38;25.50;86.60
63317;DHT22;49822;41.468;13.560;2023-07-16T00:19:04;25.60;86.20
63317;DHT22;49822;41.468;13.560;2023-07-16T00:21:31;25.50;86.60
63317;DHT22;49822;41.468;13.560;2023-07-16T00:23:58;25.50;87.10
63317;DHT22;49822;41.468;13.560;2023-07-16T00:26:24;25.50;87.00
63317;DHT22;49822;41.468;13.560;2023-07-16T00:28:51;25.40;87.40
63317;DHT22;49822;41.468;13.560;2023-07-16T00:31:17;25.30;88.10
63317;DHT22;49822;41.468;13.560;2023-07-16T00:33:42;25.10;88.40
63317;DHT22;49822;41.468;13.560;2023-07-16T00:36:09;25.00;89.20
63317;DHT22;49822;41.468;13.560;2023-07-16T00:38:35;24.90;89.50
63317;DHT22;49822;41.468;13.560;2023-07-16T00:41:01;25.10;89.00
63317;DHT22;49822;41.468;13.560;2023-07-16T00:43:27;25.10;88.50
63317;DHT22;49822;41.468;13.560;2023-07-16T00:45:54;25.20;88.00
63317;DHT22;49822;41.468;13.560;2023-07-16T00:48:21;25.20;88.20
63317;DHT22;49822;41.468;13.560;2023-07-16T00:50:47;25.10;88.30
63317;DHT22;49822;41.468;13.560;2023-07-16T00:53:13;25.10;88.20
63317;DHT22;49822;41.468;13.560;2023-07-16T00:55:39;25.10;88.20
63317;DHT22;49822;41.468;13.560;2023-07-16T00:58:10;25.00;88.40
63317;DHT22;49822;41.468;13.560;2023-07-16T01:00:45;25.00;89.00
63317;DHT22;49822;41.468;13.560;2023-07-16T01:03:36;25.10;88.10
63317;DHT22;49822;41.468;13.560;2023-07-16T01:06:21;25.10;88.30
63317;DHT22;49822;41.468;13.560;2023-07-16T01:09:36;25.10;88.30
63317;DHT22;49822;41.468;13.560;2023-07-16T01:11:57;25.10;88.30
63317;DHT22;49822;41.468;13.560;2023-07-16T01:14:25;25.20;88.50
63317;DHT22;49822;41.468;13.560;2023-07-16T01:16:51;25.20;87.90
63317;DHT22;49822;41.468;13.560;2023-07-16T01:19:24;25.10;87.70
63317;DHT22;49822;41.468;13.560;2023-07-16T01:26:08;25.20;88.40
63317;DHT22;49822;41.468;13.560;2023-07-16T01:30:33;25.00;89.50
63317;DHT22;49822;41.468;13.560;2023-07-16T01:33:03;25.00;88.80
63317;DHT22;49822;41.468;13.560;2023-07-16T01:35:30;25.10;88.60
63317;DHT22;49822;41.468;13.560;2023-07-16T01:37:57;25.20;88.50
63317;DHT22;49822;41.468;13.560;2023-07-16T01:40:23;25.20;88.20
63317;DHT22;49822;41.468;13.560;2023-07-16T01:42:50;25.10;88.60
63317;DHT22;49822;41.468;13.560;2023-07-16T01:45:18;25.20;88.20
63317;DHT22;49822;41.468;13.560;2023-07-16T01:47:55;25.10;89.50
63317;DHT22;49822;41.468;13.560;2023-07-16T01:50:24;25.00;89.10
63317;DHT22;49822;41.468;13.560;2023-07-16T01:52:51;25.10;88.40
63317;DHT22;49822;41.468;13.560;2023-07-16T01:55:17;25.10;88.40
63317;DHT22;49822;41.468;13.560;2023-07-16T01:57:43;25.10;88.10
63317;DHT22;49822;41.468;13.560;2023-07-16T02:00:10;25.10;88.10
63317;DHT22;49822;41.468;13.560;2023-07-16T02:02:46;25.10;87.80
63317;DHT22;49822;41.468;13.560;2023-07-16T02:05:14;25.10;87.60
63317;DHT22;49822;41.468;13.560;2023-07-16T02:07:41;25.00;88.20
63317;DHT22;49822;41.468;13.560;2023-07-16T02:10:07;24.90;89.40
63317;DHT22;49822;41.468;13.560;2023-07-16T02:12:34;24.70;90.00
63317;DHT22;49822;41.468;13.560;2023-07-16T02:15:00;24.60;90.40
63317;DHT22;49822;41.468;13.560;2023-07-16T02:17:26;24.60;90.40
63317;DHT22;49822;41.468;13.560;2023-07-16T02:19:52;24.60;90.70
63317;DHT22;49822;41.468;13.560;2023-07-16T02:22:19;24.50;90.00
63317;DHT22;49822;41.468;13.560;2023-07-16T02:24:45;24.60;90.40
63317;DHT22;49822;41.468;13.560;2023-07-16T02:27:13;24.60;90.00
63317;DHT22;49822;41.468;13.560;2023-07-16T02:29:39;24.60;90.50
63317;DHT22;49822;41.468;13.560;2023-07-16T02:32:06;24.50;90.90
63317;DHT22;49822;41.468;13.560;2023-07-16T02:34:32;24.30;91.60
63317;DHT22;49822;41.468;13.560;2023-07-16T02:37:00;24.30;91.60
63317;DHT22;49822;41.468;13.560;2023-07-16T02:39:27;24.30;92.10
63317;DHT22;49822;41.468;13.560;2023-07-16T02:41:53;24.40;91.60
63317;DHT22;49822;41.468;13.560;2023-07-16T02:44:22;24.40;91.70
63317;DHT22;49822;41.468;13.560;2023-07-16T02:47:21;24.20;91.40
63317;DHT22;49822;41.468;13.560;2023-07-16T02:49:52;24.10;91.90
63317;DHT22;49822;41.468;13.560;2023-07-16T02:52:18;24.10;92.30
63317;DHT22;49822;41.468;13.560;2023-07-16T02:54:44;24.10;91.90
63317;DHT22;49822;41.468;13.560;2023-07-16T02:57:12;24.30;91.80
63317;DHT22;49822;41.468;13.560;2023-07-16T02:59:38;24.30;91.20
63317;DHT22;49822;41.468;13.560;2023-07-16T03:02:04;24.40;90.60
63317;DHT22;49822;41.468;13.560;2023-07-16T03:04:31;24.40;90.80
63317;DHT22;49822;41.468;13.560;2023-07-16T03:06:58;24.50;90.10
63317;DHT22;49822;41.468;13.560;2023-07-16T03:09:24;24.60;90.10
63317;DHT22;49822;41.468;13.560;2023-07-16T03:11:50;24.60;89.90
63317;DHT22;49822;41.468;13.560;2023-07-16T03:14:17;24.60;89.50
63317;DHT22;49822;41.468;13.560;2023-07-16T03:16:45;24.60;89.80
63317;DHT22;49822;41.468;13.560;2023-07-16T03:19:11;24.60;89.50
63317;DHT22;49822;41.468;13.560;2023-07-16T03:21:37;24.60;89.30
63317;DHT22;49822;41.468;13.560;2023-07-16T03:24:04;24.40;90.20
63317;DHT22;49822;41.468;13.560;2023-07-16T03:26:31;24.20;90.60
63317;DHT22;49822;41.468;13.560;2023-07-16T03:28:57;24.20;90.80
63317;DHT22;49822;41.468;13.560;2023-07-16T03:31:24;24.20;90.20
63317;DHT22;49822;41.468;13.560;2023-07-16T03:33:51;24.20;90.20
63317;DHT22;49822;41.468;13.560;2023-07-16T03:36:18;24.30;90.70
63317;DHT22;49822;41.468;13.560;2023-07-16T03:38:44;24.30;90.20
63317;DHT22;49822;41.468;13.560;2023-07-16T03:41:11;24.40;90.10
63317;DHT22;49822;41.468;13.560;2023-07-16T03:43:37;24.20;90.70
63317;DHT22;49822;41.468;13.560;2023-07-16T03:46:24;24.30;90.80
63317;DHT22;49822;41.468;13.560;2023-07-16T03:48:52;24.30;90.60
63317;DHT22;49822;41.468;13.560;2023-07-16T03:51:18;24.30;90.80
63317;DHT22;49822;41.468;13.560;2023-07-16T03:53:45;24.40;90.10
63317;DHT22;49822;41.468;13.560;2023-07-16T03:56:12;24.40;89.70
63317;DHT22;49822;41.468;13.560;2023-07-16T03:58:38;24.30;89.80
63317;DHT22;49822;41.468;13.560;2023-07-16T04:01:09;24.30;89.60
63317;DHT22;49822;41.468;13.560;2023-07-16T04:03:37;24.40;89.60
63317;DHT22;49822;41.468;13.560;2023-07-16T04:06:07;24.40;89.60
63317;DHT22;49822;41.468;13.560;2023-07-16T04:08:37;24.30;89.00
63317;DHT22;49822;41.468;13.560;2023-07-16T04:11:04;24.30;89.80
63317;DHT22;49822;41.468;13.560;2023-07-16T04:13:33;24.40;89.60
63317;DHT22;49822;41.468;13.560;2023-07-16T04:16:01;24.40;89.70
63317;DHT22;49822;41.468;13.560;2023-07-16T04:18:28;24.40;89.50
63317;DHT22;49822;41.468;13.560;2023-07-16T04:20:55;24.50;89.50
63317;DHT22;49822;41.468;13.560;2023-07-16T04:23:22;24.40;89.60
63317;DHT22;49822;41.468;13.560;2023-07-16T04:25:57;24.40;90.00
63317;DHT22;49822;41.468;13.560;2023-07-16T04:28:23;24.30;90.10
63317;DHT22;49822;41.468;13.560;2023-07-16T04:30:51;24.40;89.90
63317;DHT22;49822;41.468;13.560;2023-07-16T04:33:20;24.50;89.60
63317;DHT22;49822;41.468;13.560;2023-07-16T04:35:47;24.60;89.40
63317;DHT22;49822;41.468;13.560;2023-07-16T04:38:14;24.70;89.80
63317;DHT22;49822;41.468;13.560;2023-07-16T04:40:42;24.60;89.20
63317;DHT22;49822;41.468;13.560;2023-07-16T04:43:08;24.70;89.60
63317;DHT22;49822;41.468;13.560;2023-07-16T04:45:40;24.70;89.50
63317;DHT22;49822;41.468;13.560;2023-07-16T04:48:21;24.80;89.40
63317;DHT22;49822;41.468;13.560;2023-07-16T04:51:14;24.40;90.60
63317;DHT22;49822;41.468;13.560;2023-07-16T04:54:14;24.30;91.20
63317;DHT22;49822;41.468;13.560;2023-07-16T04:56:52;24.40;91.00
63317;DHT22;49822;41.468;13.560;2023-07-16T04:59:21;24.50;90.90
63317;DHT22;49822;41.468;13.560;2023-07-16T05:01:47;24.80;90.50
63317;DHT22;49822;41.468;13.560;2023-07-16T05:04:13;24.80;90.30
63317;DHT22;49822;41.468;13.560;2023-07-16T05:06:39;25.00;89.80
63317;DHT22;49822;41.468;13.560;2023-07-16T05:09:05;25.10;89.40
63317;DHT22;49822;41.468;13.560;2023-07-16T05:11:32;25.20;89.30
63317;DHT22;49822;41.468;13.560;2023-07-16T05:13:59;25.40;89.10
63317;DHT22;49822;41.468;13.560;2023-07-16T05:16:25;25.50;88.90
63317;DHT22;49822;41.468;13.560;2023-07-16T05:18:51;25.70;88.60
63317;DHT22;49822;41.468;13.560;2023-07-16T05:21:17;25.70;88.50
63317;DHT22;49822;41.468;13.560;2023-07-16T05:23:51;25.70;88.30
63317;DHT22;49822;41.468;13.560;2023-07-16T05:26:26;25.90;88.30
63317;DHT22;49822;41.468;13.560;2023-07-16T05:28:53;25.90;87.90
63317;DHT22;49822;41.468;13.560;2023-07-16T05:31:19;26.00;87.90
63317;DHT22;49822;41.468;13.560;2023-07-16T05:33:45;26.20;87.40
63317;DHT22;49822;41.468;13.560;2023-07-16T05:36:11;26.20;87.50
63317;DHT22;49822;41.468;13.560;2023-07-16T05:38:37;26.30;87.40
63317;DHT22;49822;41.468;13.560;2023-07-16T05:41:05;26.30;87.40
63317;DHT22;49822;41.468;13.560;2023-07-16T05:43:32;26.40;87.00
63317;DHT22;49822;41.468;13.560;2023-07-16T05:45:58;26.40;86.70
63317;DHT22;49822;41.468;13.560;2023-07-16T05:48:25;26.50;86.90
63317;DHT22;49822;41.468;13.560;2023-07-16T05:50:51;26.60;86.70
63317;DHT22;49822;41.468;13.560;2023-07-16T05:53:17;26.60;86.60
63317;DHT22;49822;41.468;13.560;2023-07-16T05:55:43;26.70;86.30
63317;DHT22;49822;41.468;13.560;2023-07-16T05:58:09;26.80;86.40
63317;DHT22;49822;41.468;13.560;2023-07-16T06:00:38;26.80;86.10
63317;DHT22;49822;41.468;13.560;2023-07-16T06:03:05;26.90;86.00
63317;DHT22;49822;41.468;13.560;2023-07-16T06:05:31;26.90;86.00
63317;DHT22;49822;41.468;13.560;2023-07-16T06:08:00;27.00;85.90
63317;DHT22;49822;41.468;13.560;2023-07-16T06:10:26;27.10;85.60
63317;DHT22;49822;41.468;13.560;2023-07-16T06:12:53;27.20;85.40
63317;DHT22;49822;41.468;13.560;2023-07-16T06:15:22;27.30;85.50
63317;DHT22;49822;41.468;13.560;2023-07-16T06:17:51;27.30;85.30
63317;DHT22;49822;41.468;13.560;2023-07-16T06:20:17;27.40;85.40
63317;DHT22;49822;41.468;13.560;2023-07-16T06:22:43;27.40;85.00
63317;DHT22;49822;41.468;13.560;2023-07-16T06:25:10;27.60;85.20
63317;DHT22;49822;41.468;13.560;2023-07-16T06:27:36;27.60;85.20
63317;DHT22;49822;41.468;13.560;2023-07-16T06:30:05;27.60;84.60
63317;DHT22;49822;41.468;13.560;2023-07-16T06:32:34;27.80;84.30
63317;DHT22;49822;41.468;13.560;2023-07-16T06:35:00;27.80;84.10
63317;DHT22;49822;41.468;13.560;2023-07-16T06:37:27;27.90;84.10
63317;DHT22;49822;41.468;13.560;2023-07-16T06:39:53;28.00;84.10
63317;DHT22;49822;41.468;13.560;2023-07-16T06:42:19;28.10;83.90
63317;DHT22;49822;41.468;13.560;2023-07-16T06:44:48;28.10;83.60
63317;DHT22;49822;41.468;13.560;2023-07-16T06:47:14;28.10;83.40
63317;DHT22;49822;41.468;13.560;2023-07-16T06:49:41;28.30;83.50
63317;DHT22;49822;41.468;13.560;2023-07-16T06:52:07;28.40;83.60
63317;DHT22;49822;41.468;13.560;2023-07-16T06:54:34;28.40;84.20
63317;DHT22;49822;41.468;13.560;2023-07-16T06:57:11;28.50;83.80
63317;DHT22;49822;41.468;13.560;2023-07-16T06:59:54;28.60;83.40
63317;DHT22;49822;41.468;13.560;2023-07-16T07:02:27;28.80;83.20
63317;DHT22;49822;41.468;13.560;2023-07-16T07:08:19;28.90;83.90
63317;DHT22;49822;41.468;13.560;2023-07-16T07:10:48;29.00;83.40
63317;DHT22;49822;41.468;13.560;2023-07-16T07:13:22;29.10;82.90
63317;DHT22;49822;41.468;13.560;2023-07-16T07:15:50;29.20;82.20
63317;DHT22;49822;41.468;13.560;2023-07-16T07:18:17;29.20;82.00
63317;DHT22;49822;41.468;13.560;2023-07-16T07:20:42;29.30;81.60
63317;DHT22;49822;41.468;13.560;2023-07-16T07:23:10;29.40;81.70
63317;DHT22;49822;41.468;13.560;2023-07-16T07:25:37;29.60;81.50
63317;DHT22;49822;41.468;13.560;2023-07-16T07:28:03;29.60;81.50
63317;DHT22;49822;41.468;13.560;2023-07-16T07:30:32;29.60;81.40
63317;DHT22;49822;41.468;13.560;2023-07-16T07:32:59;29.80;81.50
63317;DHT22;49822;41.468;13.560;2023-07-16T07:35:26;29.90;82.10
63317;DHT22;49822;41.468;13.560;2023-07-16T07:37:52;30.00;82.10
63317;DHT22;49822;41.468;13.560;2023-07-16T07:40:18;30.10;81.60
63317;DHT22;49822;41.468;13.560;2023-07-16T07:42:45;30.10;81.20
63317;DHT22;49822;41.468;13.560;2023-07-16T07:45:11;30.10;80.90
63317;DHT22;49822;41.468;13.560;2023-07-16T07:47:37;30.10;80.90
63317;DHT22;49822;41.468;13.560;2023-07-16T07:50:05;30.20;81.10
63317;DHT22;49822;41.468;13.560;2023-07-16T07:52:33;30.40;80.60
63317;DHT22;49822;41.468;13.560;2023-07-16T07:54:59;30.50;80.30
63317;DHT22;49822;41.468;13.560;2023-07-16T07:57:25;30.50;79.80
63317;DHT22;49822;41.468;13.560;2023-07-16T07:59:51;30.60;79.90
63317;DHT22;49822;41.468;13.560;2023-07-16T08:02:22;30.70;78.80
63317;DHT22;49822;41.468;13.560;2023-07-16T08:04:53;30.60;79.30
63317;DHT22;49822;41.468;13.560;2023-07-16T08:07:20;30.70;78.50
63317;DHT22;49822;41.468;13.560;2023-07-16T08:09:47;30.80;78.70
63317;DHT22;49822;41.468;13.560;2023-07-16T08:12:15;30.90;78.00
63317;DHT22;49822;41.468;13.560;2023-07-16T08:14:42;30.60;78.40
63317;DHT22;49822;41.468;13.560;2023-07-16T08:17:09;30.70;78.90
63317;DHT22;49822;41.468;13.560;2023-07-16T08:19:35;30.80;78.50
63317;DHT22;49822;41.468;13.560;2023-07-16T08:22:01;30.90;78.30
63317;DHT22;49822;41.468;13.560;2023-07-16T08:24:27;31.00;78.30
63317;DHT22;49822;41.468;13.560;2023-07-16T08:26:53;31.20;78.00
63317;DHT22;49822;41.468;13.560;2023-07-16T08:29:20;31.40;77.40
63317;DHT22;49822;41.468;13.560;2023-07-16T08:31:48;31.60;77.50
63317;DHT22;49822;41.468;13.560;2023-07-16T08:34:14;31.80;77.10
63317;DHT22;49822;41.468;13.560;2023-07-16T08:36:40;31.90;75.60
63317;DHT22;49822;41.468;13.560;2023-07-16T08:39:07;31.90;76.50
63317;DHT22;49822;41.468;13.560;2023-07-16T08:41:33;32.00;75.30
63317;DHT22;49822;41.468;13.560;2023-07-16T08:43:59;32.00;76.80
63317;DHT22;49822;41.468;13.560;2023-07-16T08:46:25;32.20;75.60
63317;DHT22;49822;41.468;13.560;2023-07-16T08:48:53;32.30;75.80
63317;DHT22;49822;41.468;13.560;2023-07-16T08:51:21;32.40;75.10
63317;DHT22;49822;41.468;13.560;2023-07-16T08:53:47;32.50;75.20
63317;DHT22;49822;41.468;13.560;2023-07-16T08:56:14;32.60;75.20
63317;DHT22;49822;41.468;13.560;2023-07-16T08:58:42;32.70;74.50
63317;DHT22;49822;41.468;13.560;2023-07-16T09:01:09;32.80;74.10
63317;DHT22;49822;41.468;13.560;2023-07-16T09:03:36;32.90;73.60
63317;DHT22;49822;41.468;13.560;2023-07-16T09:06:04;32.90;73.20
63317;DHT22;49822;41.468;13.560;2023-07-16T09:08:31;32.90;72.90
63317;DHT22;49822;41.468;13.560;2023-07-16T09:10:59;33.00;74.00
63317;DHT22;49822;41.468;13.560;2023-07-16T09:13:25;33.10;73.50
63317;DHT22;49822;41.468;13.560;2023-07-16T09:15:57;33.20;72.90
63317;DHT22;49822;41.468;13.560;2023-07-16T09:18:27;33.30;73.70
63317;DHT22;49822;41.468;13.560;2023-07-16T09:21:00;33.40;72.10
63317;DHT22;49822;41.468;13.560;2023-07-16T09:23:32;33.50;72.40
63317;DHT22;49822;41.468;13.560;2023-07-16T09:25:58;33.50;70.50
63317;DHT22;49822;41.468;13.560;2023-07-16T09:28:25;33.60;71.50
63317;DHT22;49822;41.468;13.560;2023-07-16T09:30:51;33.40;70.70
63317;DHT22;49822;41.468;13.560;2023-07-16T09:33:20;33.30;71.20
63317;DHT22;49822;41.468;13.560;2023-07-16T09:35:51;33.40;71.10
63317;DHT22;49822;41.468;13.560;2023-07-16T09:38:18;33.60;71.80
63317;DHT22;49822;41.468;13.560;2023-07-16T09:40:45;33.60;71.50
63317;DHT22;49822;41.468;13.560;2023-07-16T09:43:12;33.70;70.10
63317;DHT22;49822;41.468;13.560;2023-07-16T09:45:41;33.80;70.70
63317;DHT22;49822;41.468;13.560;2023-07-16T09:48:09;33.90;69.50
63317;DHT22;49822;41.468;13.560;2023-07-16T09:50:36;34.00;69.90
63317;DHT22;49822;41.468;13.560;2023-07-16T09:53:06;34.10;68.30
63317;DHT22;49822;41.468;13.560;2023-07-16T09:55:35;34.00;69.00
63317;DHT22;49822;41.468;13.560;2023-07-16T09:58:05;34.20;68.20
63317;DHT22;49822;41.468;13.560;2023-07-16T10:00:33;34.30;67.70
63317;DHT22;49822;41.468;13.560;2023-07-16T10:03:01;34.40;65.70
63317;DHT22;49822;41.468;13.560;2023-07-16T10:05:28;34.50;67.00
63317;DHT22;49822;41.468;13.560;2023-07-16T10:07:59;34.60;63.70
63317;DHT22;49822;41.468;13.560;2023-07-16T10:10:42;34.60;64.60
63317;DHT22;49822;41.468;13.560;2023-07-16T10:13:11;34.70;64.80
63317;DHT22;49822;41.468;13.560;2023-07-16T10:15:50;34.80;63.10
63317;DHT22;49822;41.468;13.560;2023-07-16T10:18:29;34.90;65.20
63317;DHT22;49822;41.468;13.560;2023-07-16T10:21:07;35.00;63.70
63317;DHT22;49822;41.468;13.560;2023-07-16T10:23:38;34.90;61.80
63317;DHT22;49822;41.468;13.560;2023-07-16T10:26:06;34.90;64.20
63317;DHT22;49822;41.468;13.560;2023-07-16T10:28:35;35.10;64.50
63317;DHT22;49822;41.468;13.560;2023-07-16T10:31:02;35.10;65.10
63317;DHT22;49822;41.468;13.560;2023-07-16T10:33:29;35.10;65.50
63317;DHT22;49822;41.468;13.560;2023-07-16T10:35:57;35.20;64.80
63317;DHT22;49822;41.468;13.560;2023-07-16T10:38:27;35.20;64.30
63317;DHT22;49822;41.468;13.560;2023-07-16T10:40:53;35.40;64.10
63317;DHT22;49822;41.468;13.560;2023-07-16T10:43:19;35.50;64.30
63317;DHT22;49822;41.468;13.560;2023-07-16T10:49:34;35.70;63.30
63317;DHT22;49822;41.468;13.560;2023-07-16T10:52:01;35.70;62.10
63317;DHT22;49822;41.468;13.560;2023-07-16T10:54:27;35.80;62.80
63317;DHT22;49822;41.468;13.560;2023-07-16T10:56:53;36.00;62.90
63317;DHT22;49822;41.468;13.560;2023-07-16T10:59:20;36.00;63.20
63317;DHT22;49822;41.468;13.560;2023-07-16T11:01:46;35.90;61.40
63317;DHT22;49822;41.468;13.560;2023-07-16T11:04:12;35.80;61.70
63317;DHT22;49822;41.468;13.560;2023-07-16T11:06:38;35.70;62.30
63317;DHT22;49822;41.468;13.560;2023-07-16T11:09:25;35.90;62.90
63317;DHT22;49822;41.468;13.560;2023-07-16T11:12:08;35.90;63.80
63317;DHT22;49822;41.468;13.560;2023-07-16T11:14:35;36.10;62.60
63317;DHT22;49822;41.468;13.560;2023-07-16T11:17:07;36.20;61.60
63317;DHT22;49822;41.468;13.560;2023-07-16T11:19:35;36.30;60.10
63317;DHT22;49822;41.468;13.560;2023-07-16T11:22:04;36.30;61.60
63317;DHT22;49822;41.468;13.560;2023-07-16T11:24:40;36.40;61.80
63317;DHT22;49822;41.468;13.560;2023-07-16T11:27:15;36.60;61.40
63317;DHT22;49822;41.468;13.560;2023-07-16T11:30:06;36.80;60.90
63317;DHT22;49822;41.468;13.560;2023-07-16T11:32:42;36.90;59.40
63317;DHT22;49822;41.468;13.560;2023-07-16T11:35:10;37.00;58.70
63317;DHT22;49822;41.468;13.560;2023-07-16T11:37:37;37.10;60.10
63317;DHT22;49822;41.468;13.560;2023-07-16T11:40:06;37.50;59.30
63317;DHT22;49822;41.468;13.560;2023-07-16T11:42:39;37.60;58.50
63317;DHT22;49822;41.468;13.560;2023-07-16T11:45:22;37.80;56.80
63317;DHT22;49822;41.468;13.560;2023-07-16T11:47:52;37.90;57.70
63317;DHT22;49822;41.468;13.560;2023-07-16T11:50:19;38.00;57.70
63317;DHT22;49822;41.468;13.560;2023-07-16T11:52:55;38.20;56.40
63317;DHT22;49822;41.468;13.560;2023-07-16T11:55:22;38.40;56.70
63317;DHT22;49822;41.468;13.560;2023-07-16T11:57:48;38.40;53.60
63317;DHT22;49822;41.468;13.560;2023-07-16T12:00:14;38.40;54.00
63317;DHT22;49822;41.468;13.560;2023-07-16T12:02:41;38.60;54.50
63317;DHT22;49822;41.468;13.560;2023-07-16T12:05:07;38.70;54.20
63317;DHT22;49822;41.468;13.560;2023-07-16T12:07:35;38.70;53.50
63317;DHT22;49822;41.468;13.560;2023-07-16T12:10:03;38.70;52.50
63317;DHT22;49822;41.468;13.560;2023-07-16T12:12:31;38.80;52.60
63317;DHT22;49822;41.468;13.560;2023-07-16T12:14:57;38.90;52.50
63317;DHT22;49822;41.468;13.560;2023-07-16T12:17:23;38.80;51.30
63317;DHT22;49822;41.468;13.560;2023-07-16T12:19:49;38.80;53.80
63317;DHT22;49822;41.468;13.560;2023-07-16T12:22:17;38.90;53.70
63317;DHT22;49822;41.468;13.560;2023-07-16T12:24:44;38.90;54.40
63317;DHT22;49822;41.468;13.560;2023-07-16T12:27:10;39.10;53.00
63317;DHT22;49822;41.468;13.560;2023-07-16T12:29:37;39.30;54.20
63317;DHT22;49822;41.468;13.560;2023-07-16T12:32:03;39.40;55.00
63317;DHT22;49822;41.468;13.560;2023-07-16T12:34:29;39.50;54.80
63317;DHT22;49822;41.468;13.560;2023-07-16T12:36:55;39.60;53.00
63317;DHT22;49822;41.468;13.560;2023-07-16T12:39:21;39.60;50.80
63317;DHT22;49822;41.468;13.560;2023-07-16T12:41:49;39.60;52.60
63317;DHT22;49822;41.468;13.560;2023-07-16T12:44:16;39.80;53.70
63317;DHT22;49822;41.468;13.560;2023-07-16T12:46:47;39.90;54.10
63317;DHT22;49822;41.468;13.560;2023-07-16T12:49:14;39.90;54.20
63317;DHT22;49822;41.468;13.560;2023-07-16T12:51:41;40.00;51.90
63317;DHT22;49822;41.468;13.560;2023-07-16T12:54:07;39.90;52.40
63317;DHT22;49822;41.468;13.560;2023-07-16T12:56:33;39.90;51.50
63317;DHT22;49822;41.468;13.560;2023-07-16T12:59:00;39.80;51.50
63317;DHT22;49822;41.468;13.560;2023-07-16T13:01:26;39.90;51.80
63317;DHT22;49822;41.468;13.560;2023-07-16T13:03:52;39.90;52.50
63317;DHT22;49822;41.468;13.560;2023-07-16T13:06:18;39.90;52.60
63317;DHT22;49822;41.468;13.560;2023-07-16T13:08:44;40.10;52.80
63317;DHT22;49822;41.468;13.560;2023-07-16T13:11:10;40.20;52.30
63317;DHT22;49822;41.468;13.560;2023-07-16T13:13:36;40.40;51.80
63317;DHT22;49822;41.468;13.560;2023-07-16T13:16:03;40.50;52.50
63317;DHT22;49822;41.468;13.560;2023-07-16T13:18:29;40.50;51.90
63317;DHT22;49822;41.468;13.560;2023-07-16T13:20:55;40.40;51.80
63317;DHT22;49822;41.468;13.560;2023-07-16T13:23:21;40.30;52.70
63317;DHT22;49822;41.468;13.560;2023-07-16T13:25:47;40.20;53.00
63317;DHT22;49822;41.468;13.560;2023-07-16T13:28:17;40.40;54.20
63317;DHT22;49822;41.468;13.560;2023-07-16T13:30:43;39.90;53.10
63317;DHT22;49822;41.468;13.560;2023-07-16T13:33:17;39.60;53.30
63317;DHT22;49822;41.468;13.560;2023-07-16T13:35:57;39.20;55.70
63317;DHT22;49822;41.468;13.560;2023-07-16T13:38:27;39.00;54.80
63317;DHT22;49822;41.468;13.560;2023-07-16T13:40:53;38.80;54.80
63317;DHT22;49822;41.468;13.560;2023-07-16T13:43:19;38.60;54.20
63317;DHT22;49822;41.468;13.560;2023-07-16T13:45:45;38.40;55.10
63317;DHT22;49822;41.468;13.560;2023-07-16T13:48:11;38.20;57.90
63317;DHT22;49822;41.468;13.560;2023-07-16T13:50:37;38.10;57.50
63317;DHT22;49822;41.468;13.560;2023-07-16T13:53:03;37.80;55.70
63317;DHT22;49822;41.468;13.560;2023-07-16T13:55:29;37.60;57.80
63317;DHT22;49822;41.468;13.560;2023-07-16T13:57:56;37.80;56.80
63317;DHT22;49822;41.468;13.560;2023-07-16T14:00:24;37.70;59.10
63317;DHT22;49822;41.468;13.560;2023-07-16T14:02:52;37.50;57.10
63317;DHT22;49822;41.468;13.560;2023-07-16T14:05:18;37.30;57.80
63317;DHT22;49822;41.468;13.560;2023-07-16T14:07:45;37.70;58.70
63317;DHT22;49822;41.468;13.560;2023-07-16T14:10:12;37.00;58.40
63317;DHT22;49822;41.468;13.560;2023-07-16T14:12:38;37.00;58.00
63317;DHT22;49822;41.468;13.560;2023-07-16T14:15:05;36.80;58.40
63317;DHT22;49822;41.468;13.560;2023-07-16T14:17:31;36.90;58.70
63317;DHT22;49822;41.468;13.560;2023-07-16T14:19:57;36.80;58.70
63317;DHT22;49822;41.468;13.560;2023-07-16T14:22:23;36.90;58.30
63317;DHT22;49822;41.468;13.560;2023-07-16T14:24:53;36.80;58.50
63317;DHT22;49822;41.468;13.560;2023-07-16T14:27:19;36.90;58.70
63317;DHT22;49822;41.468;13.560;2023-07-16T14:29:46;37.00;58.90
63317;DHT22;49822;41.468;13.560;2023-07-16T14:32:12;37.00;59.00
63317;DHT22;49822;41.468;13.560;2023-07-16T14:34:39;37.00;58.90
63317;DHT22;49822;41.468;13.560;2023-07-16T14:37:05;37.10;58.30
63317;DHT22;49822;41.468;13.560;2023-07-16T14:39:32;36.80;58.70
63317;DHT22;49822;41.468;13.560;2023-07-16T14:41:58;36.80;58.50
63317;DHT22;49822;41.468;13.560;2023-07-16T14:44:29;36.90;59.10
63317;DHT22;49822;41.468;13.560;2023-07-16T14:46:56;37.10;60.20
63317;DHT22;49822;41.468;13.560;2023-07-16T14:49:22;36.90;59.50
63317;DHT22;49822;41.468;13.560;2023-07-16T14:51:48;36.70;59.60
63317;DHT22;49822;41.468;13.560;2023-07-16T14:54:14;36.50;59.20
63317;DHT22;49822;41.468;13.560;2023-07-16T14:56:40;36.40;59.00
63317;DHT22;49822;41.468;13.560;2023-07-16T14:59:06;36.40;59.30
63317;DHT22;49822;41.468;13.560;2023-07-16T15:01:32;36.50;59.70
63317;DHT22;49822;41.468;13.560;2023-07-16T15:03:58;36.50;59.70
63317;DHT22;49822;41.468;13.560;2023-07-16T15:06:24;36.50;59.40
63317;DHT22;49822;41.468;13.560;2023-07-16T15:08:51;36.40;58.90
63317;DHT22;49822;41.468;13.560;2023-07-16T15:11:17;36.40;59.30
63317;DHT22;49822;41.468;13.560;2023-07-16T15:13:43;36.30;59.50
63317;DHT22;49822;41.468;13.560;2023-07-16T15:16:09;36.30;59.30
63317;DHT22;49822;41.468;13.560;2023-07-16T15:18:38;36.20;59.20
63317;DHT22;49822;41.468;13.560;2023-07-16T15:21:04;36.00;59.10
63317;DHT22;49822;41.468;13.560;2023-07-16T15:23:30;36.10;59.40
63317;DHT22;49822;41.468;13.560;2023-07-16T15:26:03;36.20;59.70
63317;DHT22;49822;41.468;13.560;2023-07-16T15:28:31;36.20;59.40
63317;DHT22;49822;41.468;13.560;2023-07-16T15:31:02;36.20;59.10
63317;DHT22;49822;41.468;13.560;2023-07-16T15:33:29;36.10;59.40
63317;DHT22;49822;41.468;13.560;2023-07-16T15:35:59;36.00;59.30